createdAt,value
2023-01-22T00:00:12.475Z,81.61
2023-01-22T00:02:40.712Z,81.44
2023-01-22T00:05:08.474Z,81.53
2023-01-22T00:07:36.551Z,81.60
2023-01-22T00:10:04.427Z,81.75
2023-01-22T00:12:32.167Z,81.31
2023-01-22T00:14:59.887Z,81.27
2023-01-22T00:17:27.623Z,81.25
2023-01-22T00:19:55.738Z,81.50
2023-01-22T00:22:23.521Z,81.40
2023-01-22T00:24:51.182Z,81.97
2023-01-22T00:27:18.866Z,81.86
2023-01-22T00:29:46.598Z,82.00
2023-01-22T00:32:14.794Z,81.94
2023-01-22T00:34:45.275Z,81.55
2023-01-22T00:37:13.101Z,82.02
2023-01-22T00:39:40.758Z,81.36
2023-01-22T00:42:08.680Z,81.27
2023-01-22T00:44:36.748Z,81.51
2023-01-22T00:47:06.123Z,81.63
2023-01-22T00:49:33.808Z,81.70
2023-01-22T00:52:01.488Z,81.11
2023-01-22T00:54:30.066Z,81.36
2023-01-22T00:56:57.944Z,81.36
2023-01-22T00:59:25.669Z,81.46
2023-01-22T01:01:53.401Z,81.24
2023-01-22T01:04:21.087Z,81.72
2023-01-22T01:06:48.846Z,81.19
2023-01-22T01:09:16.862Z,81.73
2023-01-22T01:11:44.779Z,81.39
2023-01-22T01:14:12.434Z,81.54
2023-01-22T01:16:40.086Z,81.92
2023-01-22T01:19:07.691Z,80.86
2023-01-22T01:21:35.347Z,81.86
2023-01-22T01:24:03.549Z,81.56
2023-01-22T01:26:31.204Z,81.05
2023-01-22T01:28:58.941Z,81.79
2023-01-22T01:31:27.231Z,81.12
2023-01-22T01:33:54.896Z,81.76
2023-01-22T01:36:40.516Z,81.64
2023-01-22T01:39:10.591Z,81.69
2023-01-22T01:41:38.302Z,81.20
2023-01-22T01:44:06.272Z,81.77
2023-01-22T01:46:34.164Z,81.83
2023-01-22T01:49:01.903Z,81.55
2023-01-22T01:51:29.606Z,81.68
2023-01-22T01:53:57.247Z,81.70
2023-01-22T01:56:25.229Z,81.52
2023-01-22T01:58:53.067Z,82.03
2023-01-22T02:01:20.699Z,82.09
2023-01-22T02:03:48.355Z,81.35
2023-01-22T02:06:15.968Z,81.77
2023-01-22T02:08:43.923Z,82.09
2023-01-22T02:11:11.585Z,81.56
2023-01-22T02:13:39.693Z,81.53
2023-01-22T02:16:07.990Z,81.40
2023-01-22T02:18:35.636Z,81.20
2023-01-22T02:21:03.423Z,81.89
2023-01-22T02:23:31.202Z,81.38
2023-01-22T02:25:58.882Z,82.10
2023-01-22T02:28:26.549Z,81.83
2023-01-22T02:30:54.188Z,81.70
2023-01-22T02:33:22.247Z,81.89
2023-01-22T02:35:51.599Z,81.77
2023-01-22T02:38:19.187Z,81.62
2023-01-22T02:40:50.307Z,81.57
2023-01-22T02:43:17.910Z,81.76
2023-01-22T02:45:46.012Z,82.02
2023-01-22T02:48:13.828Z,82.00
2023-01-22T02:50:41.455Z,81.63
2023-01-22T02:53:09.059Z,81.68
2023-01-22T02:55:36.968Z,82.28
2023-01-22T02:58:05.532Z,81.37
2023-01-22T03:00:33.291Z,82.00
2023-01-22T03:03:00.926Z,82.16
2023-01-22T03:05:28.553Z,81.78
2023-01-22T03:07:56.194Z,81.77
2023-01-22T03:10:24.224Z,82.18
2023-01-22T03:13:09.542Z,81.71
2023-01-22T03:15:54.373Z,82.60
2023-01-22T03:18:39.863Z,81.99
2023-01-22T03:21:21.258Z,81.95
2023-01-22T03:23:48.877Z,81.84
2023-01-22T03:26:16.495Z,82.25
2023-01-22T03:28:46.045Z,82.33
2023-01-22T03:31:13.818Z,82.07
2023-01-22T03:33:42.375Z,82.36
2023-01-22T03:36:10.047Z,82.36
2023-01-22T03:38:37.781Z,82.14
2023-01-22T03:41:05.473Z,81.96
2023-01-22T03:43:33.209Z,82.76
2023-01-22T03:46:01.441Z,82.12
2023-01-22T03:48:29.095Z,82.20
2023-01-22T03:50:56.751Z,82.50
2023-01-22T03:53:24.415Z,82.31
2023-01-22T03:55:52.011Z,82.11
2023-01-22T03:58:20.012Z,82.73
2023-01-22T04:00:47.983Z,82.41
2023-01-22T04:03:15.571Z,82.18
2023-01-22T04:05:43.245Z,82.13
2023-01-22T04:08:10.888Z,83.14
2023-01-22T04:10:39.034Z,82.91
2023-01-22T04:13:06.677Z,82.73
2023-01-22T04:15:34.373Z,82.25
2023-01-22T04:18:01.938Z,82.64
2023-01-22T04:20:29.614Z,82.37
2023-01-22T04:22:57.799Z,82.32
2023-01-22T04:25:25.408Z,82.43
2023-01-22T04:27:53.080Z,82.55
2023-01-22T04:30:20.728Z,82.43
2023-01-22T04:32:48.364Z,82.87
2023-01-22T04:35:16.303Z,82.62
2023-01-22T04:37:43.895Z,82.07
2023-01-22T04:40:11.546Z,82.57
2023-01-22T04:42:39.181Z,82.33
2023-01-22T04:45:07.101Z,82.69
2023-01-22T04:47:35.287Z,82.37
2023-01-22T04:50:02.970Z,82.36
2023-01-22T04:52:30.562Z,82.66
2023-01-22T04:54:58.158Z,83.05
2023-01-22T04:57:25.805Z,82.85
2023-01-22T04:59:54.026Z,82.44
2023-01-22T05:02:21.638Z,82.45
2023-01-22T05:04:49.316Z,82.52
2023-01-22T05:07:17.227Z,82.73
2023-01-22T05:09:44.839Z,82.50
2023-01-22T05:12:12.944Z,82.59
2023-01-22T05:14:40.548Z,82.69
2023-01-22T05:17:08.163Z,82.44
2023-01-22T05:19:35.809Z,82.91
2023-01-22T05:22:03.399Z,82.83
2023-01-22T05:24:31.538Z,82.90
2023-01-22T05:26:59.159Z,82.75
2023-01-22T05:29:27.307Z,83.61
2023-01-22T05:31:54.899Z,83.01
2023-01-22T05:34:22.531Z,82.76
2023-01-22T05:36:50.676Z,82.59
2023-01-22T05:39:18.301Z,83.09
2023-01-22T05:41:45.903Z,82.48
2023-01-22T05:44:13.515Z,83.35
2023-01-22T05:46:41.126Z,83.00
2023-01-22T05:49:09.269Z,82.79
2023-01-22T05:51:36.878Z,83.54
2023-01-22T05:54:04.551Z,83.49
2023-01-22T05:56:32.203Z,83.36
2023-01-22T05:58:59.810Z,83.50
2023-01-22T06:01:27.767Z,83.33
2023-01-22T06:03:55.462Z,83.30
2023-01-22T06:06:23.082Z,83.07
2023-01-22T06:08:52.505Z,83.21
2023-01-22T06:11:20.603Z,83.44
2023-01-22T06:13:48.585Z,82.62
2023-01-22T06:16:16.356Z,83.16
2023-01-22T06:18:44.056Z,83.03
2023-01-22T06:21:11.616Z,83.76
2023-01-22T06:23:39.199Z,83.16
2023-01-22T06:26:07.409Z,83.37
2023-01-22T06:28:35.009Z,83.32
2023-01-22T06:31:05.736Z,84.08
2023-01-22T06:33:34.806Z,83.82
2023-01-22T06:36:02.402Z,83.87
2023-01-22T06:38:30.343Z,83.86
2023-01-22T06:40:57.975Z,83.69
2023-01-22T06:43:25.575Z,83.86
2023-01-22T06:45:53.206Z,83.82
2023-01-22T06:48:20.853Z,83.85
2023-01-22T06:50:49.196Z,83.94
2023-01-22T06:53:16.860Z,83.30
2023-01-22T06:55:44.972Z,83.75
2023-01-22T06:58:12.590Z,83.43
2023-01-22T07:00:40.189Z,83.32
2023-01-22T07:03:08.670Z,83.61
2023-01-22T07:05:37.717Z,83.72
2023-01-22T07:08:05.335Z,83.48
2023-01-22T07:10:32.981Z,83.47
2023-01-22T07:13:01.638Z,83.48
2023-01-22T07:15:29.610Z,83.80
2023-01-22T07:17:57.622Z,83.44
2023-01-22T07:20:25.289Z,83.47
2023-01-22T07:22:52.882Z,83.77
2023-01-22T07:25:20.538Z,83.84
2023-01-22T07:27:49.051Z,83.35
2023-01-22T07:30:16.909Z,83.24
2023-01-22T07:32:44.747Z,83.43
2023-01-22T07:35:12.365Z,83.23
2023-01-22T07:37:39.984Z,83.37
2023-01-22T07:40:09.279Z,83.49
2023-01-22T07:42:38.696Z,83.75
2023-01-22T07:45:06.489Z,83.65
2023-01-22T07:47:34.249Z,83.82
2023-01-22T07:50:01.864Z,83.32
2023-01-22T07:52:30.082Z,83.83
2023-01-22T07:54:57.785Z,83.38
2023-01-22T07:57:25.419Z,83.71
2023-01-22T07:59:53.071Z,83.43
2023-01-22T08:02:21.147Z,83.83
2023-01-22T08:04:49.448Z,83.86
2023-01-22T08:07:17.673Z,83.25
2023-01-22T08:09:45.373Z,83.89
2023-01-22T08:12:12.978Z,83.42
2023-01-22T08:14:40.676Z,83.91
2023-01-22T08:17:08.923Z,83.07
2023-01-22T08:19:36.534Z,83.37
2023-01-22T08:22:04.461Z,83.80
2023-01-22T08:24:32.135Z,83.99
2023-01-22T08:26:59.753Z,83.64
2023-01-22T08:29:28.085Z,83.70
2023-01-22T08:31:55.903Z,83.94
2023-01-22T08:34:23.606Z,83.86
2023-01-22T08:36:51.330Z,83.66
2023-01-22T08:39:19.036Z,83.67
2023-01-22T08:41:47.392Z,83.40
2023-01-22T08:44:15.060Z,83.37
2023-01-22T08:46:43.108Z,83.99
2023-01-22T08:49:10.868Z,83.28
2023-01-22T08:51:38.619Z,83.28
2023-01-22T08:54:06.986Z,83.29
2023-01-22T08:56:34.755Z,83.68
2023-01-22T08:59:06.796Z,83.96
2023-01-22T09:01:34.788Z,82.89
2023-01-22T09:04:02.534Z,82.96
2023-01-22T09:06:30.939Z,83.43
2023-01-22T09:08:59.570Z,82.88
2023-01-22T09:11:27.358Z,82.77
2023-01-22T09:13:56.594Z,82.85
2023-01-22T09:16:24.401Z,83.13
2023-01-22T09:18:52.365Z,82.78
2023-01-22T09:21:20.021Z,83.35
2023-01-22T09:23:48.136Z,83.04
2023-01-22T09:26:15.965Z,83.07
2023-01-22T09:28:43.723Z,83.22
2023-01-22T09:31:16.394Z,82.75
2023-01-22T09:33:44.149Z,83.01
2023-01-22T09:36:12.202Z,82.91
2023-01-22T09:38:40.176Z,83.00
2023-01-22T09:41:07.891Z,82.51
2023-01-22T09:43:36.413Z,82.42
2023-01-22T09:46:04.330Z,82.82
2023-01-22T09:48:32.097Z,83.09
2023-01-22T09:51:00.090Z,83.16
2023-01-22T09:53:28.136Z,83.30
2023-01-22T09:55:56.245Z,82.94
2023-01-22T09:58:24.191Z,82.60
2023-01-22T10:00:52.276Z,82.90
2023-01-22T10:03:22.574Z,83.19
2023-01-22T10:05:50.511Z,82.89
2023-01-22T10:08:19.465Z,83.16
2023-01-22T10:10:47.432Z,82.79
2023-01-22T10:13:15.910Z,82.64
2023-01-22T10:15:43.817Z,82.54
2023-01-22T10:18:11.631Z,82.56
2023-01-22T10:20:39.846Z,83.19
2023-01-22T10:23:08.105Z,82.62
2023-01-22T10:25:35.984Z,83.15
2023-01-22T10:28:04.486Z,82.74
2023-01-22T10:30:32.465Z,82.64
2023-01-22T10:33:00.882Z,82.78
2023-01-22T10:35:31.219Z,82.67
2023-01-22T10:37:59.311Z,82.47
2023-01-22T10:40:27.409Z,82.56
2023-01-22T10:42:55.259Z,82.30
2023-01-22T10:45:23.723Z,82.15
2023-01-22T10:47:51.444Z,82.25
2023-01-22T10:50:19.968Z,82.45
2023-01-22T10:52:48.121Z,82.52
2023-01-22T10:55:15.969Z,82.37
2023-01-22T10:57:46.513Z,82.44
2023-01-22T11:00:14.666Z,82.40
2023-01-22T11:02:42.533Z,82.80
2023-01-22T11:05:10.429Z,82.56
2023-01-22T11:07:38.551Z,82.88
2023-01-22T11:10:07.209Z,82.89
2023-01-22T11:12:35.129Z,82.63
2023-01-22T11:15:02.995Z,82.72
2023-01-22T11:17:30.936Z,82.52
2023-01-22T11:19:59.340Z,82.25
2023-01-22T11:22:28.288Z,82.21
2023-01-22T11:24:56.203Z,82.72
2023-01-22T11:27:24.140Z,82.74
2023-01-22T11:29:52.172Z,82.26
2023-01-22T11:32:19.972Z,82.14
2023-01-22T11:34:48.544Z,82.27
2023-01-22T11:37:16.591Z,82.81
2023-01-22T11:39:44.362Z,82.59
2023-01-22T11:42:12.780Z,82.12
2023-01-22T11:44:40.910Z,82.53
2023-01-22T11:47:09.149Z,82.48
2023-01-22T11:49:37.069Z,82.61
2023-01-22T11:52:05.170Z,82.64
2023-01-22T11:54:33.182Z,82.71
2023-01-22T11:57:01.104Z,82.98
2023-01-22T11:59:32.113Z,82.61
2023-01-22T12:02:00.147Z,82.15
2023-01-22T12:04:28.437Z,82.24
2023-01-22T12:06:56.298Z,82.00
2023-01-22T12:09:24.158Z,82.07
2023-01-22T12:11:52.769Z,82.69
2023-01-22T12:14:20.748Z,82.01
2023-01-22T12:16:48.783Z,82.49
2023-01-22T12:19:16.784Z,82.17
2023-01-22T12:21:44.734Z,82.55
2023-01-22T12:24:13.041Z,82.74
2023-01-22T12:26:41.513Z,82.55
2023-01-22T12:29:09.545Z,82.21
2023-01-22T12:31:37.457Z,82.86
2023-01-22T12:34:05.375Z,82.30
2023-01-22T12:36:34.095Z,82.43
2023-01-22T12:39:01.908Z,82.97
2023-01-22T12:41:30.042Z,82.64
2023-01-22T12:43:58.181Z,82.28
2023-01-22T12:46:26.949Z,82.41
2023-01-22T12:48:57.071Z,82.76
2023-01-22T12:51:25.131Z,82.67
2023-01-22T12:53:53.097Z,83.13
2023-01-22T12:56:21.044Z,82.53
2023-01-22T12:58:49.071Z,82.80
2023-01-22T13:01:17.427Z,82.97
2023-01-22T13:03:45.417Z,82.41
2023-01-22T13:06:13.471Z,82.45
2023-01-22T13:08:41.499Z,83.11
2023-01-22T13:11:09.799Z,82.54
2023-01-22T13:13:38.567Z,82.46
2023-01-22T13:16:06.557Z,82.89
2023-01-22T13:18:34.578Z,82.89
2023-01-22T13:21:03.216Z,83.05
2023-01-22T13:23:31.093Z,83.04
2023-01-22T13:25:59.223Z,83.16
2023-01-22T13:28:27.322Z,83.00
2023-01-22T13:30:55.138Z,83.00
2023-01-22T13:33:23.522Z,82.72
2023-01-22T13:35:51.671Z,82.46
2023-01-22T13:38:20.303Z,82.71
2023-01-22T13:40:51.448Z,83.02
2023-01-22T13:43:20.059Z,83.03
2023-01-22T13:45:47.979Z,82.59
2023-01-22T13:48:15.920Z,82.71
2023-01-22T13:50:44.815Z,83.15
2023-01-22T13:53:12.626Z,82.90
2023-01-22T13:55:41.071Z,82.63
2023-01-22T13:58:08.962Z,82.74
2023-01-22T14:00:36.966Z,83.08
2023-01-22T14:03:05.167Z,83.23
2023-01-22T14:05:33.313Z,82.95
2023-01-22T14:08:01.227Z,82.91
2023-01-22T14:10:29.267Z,82.55
2023-01-22T14:12:57.275Z,83.24
2023-01-22T14:15:25.387Z,82.48
2023-01-22T14:17:53.610Z,82.83
2023-01-22T14:20:21.864Z,82.78
2023-01-22T14:22:50.064Z,83.34
2023-01-22T14:25:18.056Z,82.56
2023-01-22T14:27:46.709Z,82.91
2023-01-22T14:30:14.955Z,83.08
2023-01-22T14:32:43.039Z,82.63
2023-01-22T14:35:11.059Z,82.76
2023-01-22T14:37:39.036Z,82.76
2023-01-22T14:40:08.282Z,83.32
2023-01-22T14:42:36.380Z,83.14
2023-01-22T14:45:04.226Z,82.94
2023-01-22T14:47:32.276Z,83.13
2023-01-22T14:50:00.496Z,83.43
2023-01-22T14:52:28.797Z,83.32
2023-01-22T14:54:56.706Z,83.49
2023-01-22T14:57:24.681Z,83.34
2023-01-22T14:59:52.595Z,82.74
2023-01-22T15:02:20.844Z,83.11
2023-01-22T15:04:49.838Z,83.50
2023-01-22T15:07:17.706Z,82.79
2023-01-22T15:09:45.665Z,83.00
2023-01-22T15:12:13.720Z,83.04
2023-01-22T15:14:41.808Z,83.67
2023-01-22T15:17:10.551Z,83.44
2023-01-22T15:19:41.367Z,83.04
2023-01-22T15:22:09.424Z,83.25
2023-01-22T15:24:39.641Z,82.86
2023-01-22T15:27:07.577Z,83.11
2023-01-22T15:29:36.387Z,83.08
2023-01-22T15:32:04.538Z,82.91
2023-01-22T15:34:32.434Z,82.91
2023-01-22T15:37:01.170Z,83.42
2023-01-22T15:39:29.232Z,83.10
2023-01-22T15:41:57.973Z,83.54
2023-01-22T15:44:26.054Z,83.81
2023-01-22T15:46:54.759Z,83.59
2023-01-22T15:49:22.645Z,83.23
2023-01-22T15:51:50.493Z,83.19
2023-01-22T15:54:19.175Z,82.85
2023-01-22T15:56:46.987Z,83.06
2023-01-22T15:59:14.969Z,83.13
2023-01-22T16:01:43.162Z,83.63
2023-01-22T16:04:11.135Z,82.93
2023-01-22T16:06:39.550Z,83.51
2023-01-22T16:09:07.922Z,83.66
2023-01-22T16:11:35.836Z,83.15
2023-01-22T16:14:03.602Z,83.57
2023-01-22T16:16:31.653Z,82.97
2023-01-22T16:19:00.175Z,83.70
2023-01-22T16:21:28.156Z,83.16
2023-01-22T16:23:56.342Z,83.36
2023-01-22T16:26:24.210Z,83.47
2023-01-22T16:28:52.216Z,83.38
2023-01-22T16:31:22.207Z,83.15
2023-01-22T16:33:50.220Z,83.63
2023-01-22T16:36:18.109Z,83.74
2023-01-22T16:38:46.067Z,83.81
2023-01-22T16:41:19.866Z,83.04
2023-01-22T16:43:52.130Z,83.37
2023-01-22T16:46:19.990Z,84.07
2023-01-22T16:48:47.960Z,83.35
2023-01-22T16:51:15.883Z,83.32
2023-01-22T16:53:43.850Z,83.78
2023-01-22T16:56:12.609Z,83.63
2023-01-22T16:58:40.680Z,83.37
2023-01-22T17:01:08.597Z,83.41
2023-01-22T17:03:36.498Z,83.04
2023-01-22T17:06:04.608Z,83.68
2023-01-22T17:08:33.130Z,83.45
2023-01-22T17:11:00.893Z,83.35
2023-01-22T17:13:30.072Z,83.65
2023-01-22T17:15:57.917Z,83.60
2023-01-22T17:18:25.764Z,83.59
2023-01-22T17:21:02.117Z,83.39
2023-01-22T17:23:30.408Z,83.40
2023-01-22T17:25:58.398Z,83.34
2023-01-22T17:28:26.218Z,83.62
2023-01-22T17:30:54.117Z,83.43
2023-01-22T17:33:24.699Z,83.60
2023-01-22T17:35:52.552Z,83.69
2023-01-22T17:38:20.757Z,83.59
2023-01-22T17:40:48.671Z,83.61
2023-01-22T17:43:16.945Z,83.42
2023-01-22T17:45:45.355Z,83.91
2023-01-22T17:48:13.247Z,83.63
2023-01-22T17:50:41.197Z,83.42
2023-01-22T17:53:09.144Z,83.71
2023-01-22T17:55:42.298Z,83.98
2023-01-22T17:58:10.409Z,83.28
2023-01-22T18:00:38.588Z,83.69
2023-01-22T18:03:06.634Z,83.48
2023-01-22T18:05:34.792Z,83.29
2023-01-22T18:08:03.234Z,83.46
2023-01-22T18:10:31.721Z,83.50
2023-01-22T18:12:59.703Z,83.63
2023-01-22T18:15:27.487Z,83.90
2023-01-22T18:17:55.763Z,83.91
2023-01-22T18:20:23.923Z,83.93
2023-01-22T18:22:52.145Z,83.48
2023-01-22T18:25:20.428Z,83.63
2023-01-22T18:27:48.565Z,83.93
2023-01-22T18:30:16.468Z,83.96
2023-01-22T18:32:44.490Z,84.20
2023-01-22T18:35:12.742Z,83.49
2023-01-22T18:37:40.666Z,83.65
2023-01-22T18:40:09.179Z,83.95
2023-01-22T18:42:37.056Z,84.10
2023-01-22T18:45:05.185Z,83.40
2023-01-22T18:47:35.384Z,83.46
2023-01-22T18:50:03.325Z,83.70
2023-01-22T18:52:31.181Z,83.53
2023-01-22T18:54:59.396Z,83.88
2023-01-22T18:57:40.928Z,84.06
2023-01-22T19:00:09.858Z,83.45
2023-01-22T19:02:37.906Z,84.09
2023-01-22T19:05:06.676Z,84.03
2023-01-22T19:07:38.499Z,83.90
2023-01-22T19:10:06.532Z,83.49
2023-01-22T19:12:34.433Z,83.96
2023-01-22T19:15:02.391Z,83.55
2023-01-22T19:17:30.245Z,83.76
2023-01-22T19:19:58.252Z,83.77
2023-01-22T19:22:26.773Z,83.66
2023-01-22T19:24:57.380Z,84.11
2023-01-22T19:27:25.607Z,83.47
2023-01-22T19:29:54.443Z,83.87
2023-01-22T19:32:27.933Z,83.54
2023-01-22T19:34:56.156Z,83.99
2023-01-22T19:37:24.547Z,83.83
2023-01-22T19:39:52.432Z,83.73
2023-01-22T19:42:20.319Z,84.06
2023-01-22T19:44:48.568Z,83.53
2023-01-22T19:47:16.599Z,84.29
2023-01-22T19:49:44.732Z,84.08
2023-01-22T19:52:13.596Z,83.57
2023-01-22T19:54:47.496Z,84.04
2023-01-22T19:57:15.923Z,83.71
2023-01-22T19:59:44.206Z,83.87
2023-01-22T20:02:13.113Z,83.66
2023-01-22T20:04:41.583Z,84.13
2023-01-22T20:07:09.490Z,83.52
2023-01-22T20:09:37.990Z,84.51
2023-01-22T20:12:06.302Z,83.47
2023-01-22T20:14:34.278Z,83.99
2023-01-22T20:17:02.264Z,84.02
2023-01-22T20:19:30.677Z,83.69
2023-01-22T20:21:58.892Z,84.22
2023-01-22T20:24:28.552Z,83.87
2023-01-22T20:26:58.336Z,83.50
2023-01-22T20:29:26.329Z,84.19
2023-01-22T20:31:54.331Z,83.54
2023-01-22T20:34:22.607Z,84.27
2023-01-22T20:36:51.203Z,84.09
2023-01-22T20:39:19.935Z,83.71
2023-01-22T20:41:47.898Z,84.22
2023-01-22T20:44:16.029Z,84.16
2023-01-22T20:46:45.330Z,84.41
2023-01-22T20:49:15.083Z,83.36
2023-01-22T20:51:43.425Z,83.48
2023-01-22T20:54:11.317Z,84.14
2023-01-22T20:56:39.240Z,83.33
2023-01-22T20:59:07.591Z,84.08
2023-01-22T21:01:35.857Z,84.19
2023-01-22T21:04:03.707Z,84.22
2023-01-22T21:06:31.575Z,84.43
2023-01-22T21:09:01.328Z,83.86
2023-01-22T21:11:30.575Z,83.88
2023-01-22T21:13:58.766Z,83.60
2023-01-22T21:16:28.031Z,84.13
2023-01-22T21:18:55.891Z,84.15
2023-01-22T21:21:23.825Z,84.25
2023-01-22T21:23:52.191Z,83.71
2023-01-22T21:26:22.989Z,84.42
2023-01-22T21:28:51.327Z,84.46
2023-01-22T21:31:19.441Z,84.07
2023-01-22T21:33:48.939Z,84.25
2023-01-22T21:36:18.951Z,84.16
2023-01-22T21:38:47.554Z,83.93
2023-01-22T21:41:15.428Z,83.64
2023-01-22T21:44:00.699Z,84.45
2023-01-22T21:46:29.045Z,84.23
2023-01-22T21:48:58.560Z,83.91
2023-01-22T21:51:26.695Z,83.97
2023-01-22T21:53:54.519Z,84.22
2023-01-22T21:56:22.412Z,83.90
2023-01-22T21:58:51.143Z,84.16
2023-01-22T22:01:19.376Z,84.62
2023-01-22T22:03:47.339Z,83.94
2023-01-22T22:06:15.305Z,84.38
2023-01-22T22:08:43.684Z,83.64
2023-01-22T22:11:11.883Z,83.97
2023-01-22T22:13:40.068Z,83.77
2023-01-22T22:16:08.294Z,84.31
2023-01-22T22:18:36.301Z,84.30
2023-01-22T22:21:04.193Z,83.89
2023-01-22T22:23:32.374Z,84.10
2023-01-22T22:26:00.832Z,83.84
2023-01-22T22:28:28.943Z,84.28
2023-01-22T22:30:56.946Z,83.97
2023-01-22T22:33:25.006Z,83.92
2023-01-22T22:35:53.139Z,84.54
2023-01-22T22:38:22.418Z,84.54
2023-01-22T22:40:50.222Z,84.47
2023-01-22T22:43:18.114Z,83.75
2023-01-22T22:45:46.095Z,84.08
2023-01-22T22:48:14.131Z,84.59
2023-01-22T22:50:43.457Z,83.93
2023-01-22T22:53:11.418Z,84.60
2023-01-22T22:55:39.278Z,84.58
2023-01-22T22:58:09.436Z,84.43
2023-01-22T23:00:38.734Z,83.92
2023-01-22T23:03:06.693Z,84.60
2023-01-22T23:05:34.668Z,83.96
2023-01-22T23:08:02.379Z,84.63
2023-01-22T23:10:30.318Z,84.14
2023-01-22T23:12:58.149Z,84.05
2023-01-22T23:15:25.981Z,83.69
2023-01-22T23:17:53.708Z,83.76
2023-01-22T23:20:21.628Z,83.66
2023-01-22T23:22:49.842Z,84.32
2023-01-22T23:25:18.268Z,84.53
2023-01-22T23:27:46.418Z,83.68
2023-01-22T23:30:14.122Z,84.18
2023-01-22T23:32:42.866Z,84.52
2023-01-22T23:35:11.397Z,84.63
2023-01-22T23:37:39.489Z,84.36
2023-01-22T23:40:07.201Z,84.16
2023-01-22T23:42:34.920Z,84.51
2023-01-22T23:45:03.020Z,84.38
2023-01-22T23:47:31.277Z,84.67
2023-01-22T23:49:58.988Z,84.26
2023-01-22T23:52:26.688Z,84.35
2023-01-22T23:54:54.382Z,84.45
2023-01-22T23:57:22.100Z,83.90
2023-01-22T23:59:49.766Z,84.41
